sensor_id;sensor_type;location;lat;lon;timestamp;P1;durP1;ratioP1;P2;durP2;ratioP2
16890;SDS011;8562;52.246;20.966;2022-09-21T00:00:50;4.23;;;3.23;;
16890;SDS011;8562;52.246;20.966;2022-09-21T00:03:16;4.17;;;3.30;;
16890;SDS011;8562;52.246;20.966;2022-09-21T00:05:42;3.73;;;2.43;;
16890;SDS011;8562;52.246;20.966;2022-09-21T00:08:09;4.20;;;2.93;;
16890;SDS011;8562;52.246;20.966;2022-09-21T00:10:36;6.27;;;3.37;;
16890;SDS011;8562;52.246;20.966;2022-09-21T00:13:02;4.37;;;3.13;;
16890;SDS011;8562;52.246;20.966;2022-09-21T00:15:29;4.47;;;3.43;;
16890;SDS011;8562;52.246;20.966;2022-09-21T00:17:55;3.93;;;2.47;;
16890;SDS011;8562;52.246;20.966;2022-09-21T00:20:22;4.20;;;3.00;;
16890;SDS011;8562;52.246;20.966;2022-09-21T00:22:49;4.60;;;3.07;;
16890;SDS011;8562;52.246;20.966;2022-09-21T00:25:15;4.20;;;2.63;;
16890;SDS011;8562;52.246;20.966;2022-09-21T00:27:42;3.50;;;2.83;;
16890;SDS011;8562;52.246;20.966;2022-09-21T00:30:09;4.90;;;3.17;;
16890;SDS011;8562;52.246;20.966;2022-09-21T00:32:36;10.00;;;3.20;;
16890;SDS011;8562;52.246;20.966;2022-09-21T00:35:03;4.80;;;3.10;;
16890;SDS011;8562;52.246;20.966;2022-09-21T00:37:31;3.10;;;2.77;;
16890;SDS011;8562;52.246;20.966;2022-09-21T00:39:58;3.43;;;2.50;;
16890;SDS011;8562;52.246;20.966;2022-09-21T00:42:25;6.77;;;3.67;;
16890;SDS011;8562;52.246;20.966;2022-09-21T00:44:51;5.10;;;3.30;;
16890;SDS011;8562;52.246;20.966;2022-09-21T00:47:18;3.50;;;2.70;;
16890;SDS011;8562;52.246;20.966;2022-09-21T00:49:47;4.27;;;2.73;;
16890;SDS011;8562;52.246;20.966;2022-09-21T00:52:15;3.97;;;3.17;;
16890;SDS011;8562;52.246;20.966;2022-09-21T00:54:48;5.97;;;4.60;;
16890;SDS011;8562;52.246;20.966;2022-09-21T00:57:15;4.70;;;3.53;;
16890;SDS011;8562;52.246;20.966;2022-09-21T00:59:42;3.27;;;2.90;;
16890;SDS011;8562;52.246;20.966;2022-09-21T01:02:09;4.17;;;3.77;;
16890;SDS011;8562;52.246;20.966;2022-09-21T01:04:36;7.33;;;4.17;;
16890;SDS011;8562;52.246;20.966;2022-09-21T01:07:04;5.30;;;3.70;;
16890;SDS011;8562;52.246;20.966;2022-09-21T01:09:31;5.10;;;3.40;;
16890;SDS011;8562;52.246;20.966;2022-09-21T01:12:16;6.53;;;4.33;;
16890;SDS011;8562;52.246;20.966;2022-09-21T01:28:25;4.47;;;4.07;;
16890;SDS011;8562;52.246;20.966;2022-09-21T01:30:58;12.77;;;5.73;;
16890;SDS011;8562;52.246;20.966;2022-09-21T01:33:34;9.37;;;5.57;;
16890;SDS011;8562;52.246;20.966;2022-09-21T01:36:05;6.73;;;4.27;;
16890;SDS011;8562;52.246;20.966;2022-09-21T01:38:44;5.37;;;4.37;;
16890;SDS011;8562;52.246;20.966;2022-09-21T01:41:11;7.17;;;4.73;;
16890;SDS011;8562;52.246;20.966;2022-09-21T01:43:39;8.90;;;5.27;;
16890;SDS011;8562;52.246;20.966;2022-09-21T01:46:07;7.33;;;4.90;;
16890;SDS011;8562;52.246;20.966;2022-09-21T01:48:36;6.00;;;4.60;;
16890;SDS011;8562;52.246;20.966;2022-09-21T01:51:03;6.93;;;5.13;;
16890;SDS011;8562;52.246;20.966;2022-09-21T01:53:32;6.33;;;5.07;;
16890;SDS011;8562;52.246;20.966;2022-09-21T01:56:00;9.10;;;5.90;;
16890;SDS011;8562;52.246;20.966;2022-09-21T01:58:33;8.90;;;6.03;;
16890;SDS011;8562;52.246;20.966;2022-09-21T02:01:01;7.13;;;5.27;;
16890;SDS011;8562;52.246;20.966;2022-09-21T02:05:54;6.67;;;5.27;;
16890;SDS011;8562;52.246;20.966;2022-09-21T02:08:21;7.50;;;5.13;;
16890;SDS011;8562;52.246;20.966;2022-09-21T02:10:49;8.23;;;6.33;;
16890;SDS011;8562;52.246;20.966;2022-09-21T02:13:16;8.63;;;5.63;;
16890;SDS011;8562;52.246;20.966;2022-09-21T02:16:18;5.20;;;4.70;;
16890;SDS011;8562;52.246;20.966;2022-09-21T02:21:04;8.03;;;5.63;;
16890;SDS011;8562;52.246;20.966;2022-09-21T02:23:43;7.13;;;5.07;;
16890;SDS011;8562;52.246;20.966;2022-09-21T02:26:18;8.43;;;6.03;;
16890;SDS011;8562;52.246;20.966;2022-09-21T02:28:58;9.07;;;5.97;;
16890;SDS011;8562;52.246;20.966;2022-09-21T02:31:35;8.40;;;6.10;;
16890;SDS011;8562;52.246;20.966;2022-09-21T02:34:27;8.37;;;5.37;;
16890;SDS011;8562;52.246;20.966;2022-09-21T02:37:01;9.70;;;6.07;;
16890;SDS011;8562;52.246;20.966;2022-09-21T02:39:33;9.97;;;6.63;;
16890;SDS011;8562;52.246;20.966;2022-09-21T02:42:03;8.20;;;5.50;;
16890;SDS011;8562;52.246;20.966;2022-09-21T02:44:35;10.43;;;6.67;;
16890;SDS011;8562;52.246;20.966;2022-09-21T02:47:11;9.43;;;7.00;;
16890;SDS011;8562;52.246;20.966;2022-09-21T02:49:43;10.67;;;6.07;;
16890;SDS011;8562;52.246;20.966;2022-09-21T02:52:12;9.83;;;6.93;;
16890;SDS011;8562;52.246;20.966;2022-09-21T02:54:39;10.77;;;6.93;;
16890;SDS011;8562;52.246;20.966;2022-09-21T02:57:06;14.77;;;8.73;;
16890;SDS011;8562;52.246;20.966;2022-09-21T02:59:33;11.63;;;7.63;;
16890;SDS011;8562;52.246;20.966;2022-09-21T03:01:59;11.70;;;7.70;;
16890;SDS011;8562;52.246;20.966;2022-09-21T03:04:25;14.00;;;7.43;;
16890;SDS011;8562;52.246;20.966;2022-09-21T03:06:52;12.33;;;7.50;;
16890;SDS011;8562;52.246;20.966;2022-09-21T03:09:18;15.70;;;7.57;;
16890;SDS011;8562;52.246;20.966;2022-09-21T03:11:48;9.40;;;6.63;;
16890;SDS011;8562;52.246;20.966;2022-09-21T03:14:14;13.10;;;7.93;;
16890;SDS011;8562;52.246;20.966;2022-09-21T03:16:43;12.87;;;7.37;;
16890;SDS011;8562;52.246;20.966;2022-09-21T03:19:09;11.70;;;7.53;;
16890;SDS011;8562;52.246;20.966;2022-09-21T03:21:36;10.83;;;7.50;;
16890;SDS011;8562;52.246;20.966;2022-09-21T03:24:02;12.77;;;6.57;;
16890;SDS011;8562;52.246;20.966;2022-09-21T03:26:28;15.17;;;8.87;;
16890;SDS011;8562;52.246;20.966;2022-09-21T03:28:55;12.17;;;7.43;;
16890;SDS011;8562;52.246;20.966;2022-09-21T03:31:21;11.57;;;7.47;;
16890;SDS011;8562;52.246;20.966;2022-09-21T03:33:47;11.13;;;7.23;;
16890;SDS011;8562;52.246;20.966;2022-09-21T03:36:13;12.03;;;6.50;;
16890;SDS011;8562;52.246;20.966;2022-09-21T03:38:40;12.20;;;6.83;;
16890;SDS011;8562;52.246;20.966;2022-09-21T03:41:06;13.17;;;6.53;;
16890;SDS011;8562;52.246;20.966;2022-09-21T03:43:33;9.77;;;7.00;;
16890;SDS011;8562;52.246;20.966;2022-09-21T03:45:59;10.33;;;6.50;;
16890;SDS011;8562;52.246;20.966;2022-09-21T03:48:25;16.00;;;7.47;;
16890;SDS011;8562;52.246;20.966;2022-09-21T03:50:51;11.33;;;7.80;;
16890;SDS011;8562;52.246;20.966;2022-09-21T03:53:17;9.97;;;6.30;;
16890;SDS011;8562;52.246;20.966;2022-09-21T03:55:43;12.30;;;7.33;;
16890;SDS011;8562;52.246;20.966;2022-09-21T03:58:09;13.53;;;6.43;;
16890;SDS011;8562;52.246;20.966;2022-09-21T04:00:35;10.50;;;6.20;;
16890;SDS011;8562;52.246;20.966;2022-09-21T04:03:03;12.03;;;6.90;;
16890;SDS011;8562;52.246;20.966;2022-09-21T04:05:29;11.10;;;6.27;;
16890;SDS011;8562;52.246;20.966;2022-09-21T04:07:55;8.90;;;5.77;;
16890;SDS011;8562;52.246;20.966;2022-09-21T04:10:22;9.70;;;5.73;;
16890;SDS011;8562;52.246;20.966;2022-09-21T04:12:56;11.73;;;6.27;;
16890;SDS011;8562;52.246;20.966;2022-09-21T04:15:22;10.00;;;6.13;;
16890;SDS011;8562;52.246;20.966;2022-09-21T04:17:51;6.43;;;5.07;;
16890;SDS011;8562;52.246;20.966;2022-09-21T04:20:18;7.33;;;4.93;;
16890;SDS011;8562;52.246;20.966;2022-09-21T04:22:45;6.73;;;4.70;;
16890;SDS011;8562;52.246;20.966;2022-09-21T04:25:11;9.67;;;5.97;;
16890;SDS011;8562;52.246;20.966;2022-09-21T04:27:38;7.17;;;4.87;;
16890;SDS011;8562;52.246;20.966;2022-09-21T04:30:05;8.33;;;5.43;;
16890;SDS011;8562;52.246;20.966;2022-09-21T04:32:31;9.57;;;5.07;;
16890;SDS011;8562;52.246;20.966;2022-09-21T04:34:57;8.90;;;5.33;;
16890;SDS011;8562;52.246;20.966;2022-09-21T04:37:23;7.23;;;4.50;;
16890;SDS011;8562;52.246;20.966;2022-09-21T04:39:49;6.53;;;4.40;;
16890;SDS011;8562;52.246;20.966;2022-09-21T04:42:15;5.87;;;4.10;;
16890;SDS011;8562;52.246;20.966;2022-09-21T04:44:42;6.10;;;4.27;;
16890;SDS011;8562;52.246;20.966;2022-09-21T04:47:08;6.60;;;4.73;;
16890;SDS011;8562;52.246;20.966;2022-09-21T04:49:34;8.77;;;4.53;;
16890;SDS011;8562;52.246;20.966;2022-09-21T04:52:00;6.50;;;4.80;;
16890;SDS011;8562;52.246;20.966;2022-09-21T04:54:27;7.00;;;4.27;;
16890;SDS011;8562;52.246;20.966;2022-09-21T04:56:53;6.83;;;4.77;;
16890;SDS011;8562;52.246;20.966;2022-09-21T04:59:19;7.10;;;5.07;;
16890;SDS011;8562;52.246;20.966;2022-09-21T05:01:45;6.03;;;4.70;;
16890;SDS011;8562;52.246;20.966;2022-09-21T05:04:11;7.90;;;4.47;;
16890;SDS011;8562;52.246;20.966;2022-09-21T05:06:37;4.97;;;4.40;;
16890;SDS011;8562;52.246;20.966;2022-09-21T05:09:04;6.37;;;4.43;;
16890;SDS011;8562;52.246;20.966;2022-09-21T05:11:59;7.90;;;4.53;;
16890;SDS011;8562;52.246;20.966;2022-09-21T05:14:27;5.10;;;3.77;;
16890;SDS011;8562;52.246;20.966;2022-09-21T05:16:53;5.60;;;3.97;;
16890;SDS011;8562;52.246;20.966;2022-09-21T05:19:19;4.40;;;3.83;;
16890;SDS011;8562;52.246;20.966;2022-09-21T05:21:46;6.47;;;4.17;;
16890;SDS011;8562;52.246;20.966;2022-09-21T05:24:12;4.30;;;3.57;;
16890;SDS011;8562;52.246;20.966;2022-09-21T05:26:38;4.20;;;3.70;;
16890;SDS011;8562;52.246;20.966;2022-09-21T05:29:05;5.70;;;3.60;;
16890;SDS011;8562;52.246;20.966;2022-09-21T05:33:58;5.87;;;4.27;;
16890;SDS011;8562;52.246;20.966;2022-09-21T05:39:13;5.17;;;3.57;;
16890;SDS011;8562;52.246;20.966;2022-09-21T05:41:39;4.77;;;3.33;;
16890;SDS011;8562;52.246;20.966;2022-09-21T05:44:06;5.37;;;3.87;;
16890;SDS011;8562;52.246;20.966;2022-09-21T05:46:39;5.33;;;4.23;;
16890;SDS011;8562;52.246;20.966;2022-09-21T05:49:10;5.13;;;3.43;;
16890;SDS011;8562;52.246;20.966;2022-09-21T05:51:42;4.57;;;3.73;;
16890;SDS011;8562;52.246;20.966;2022-09-21T06:04:41;5.47;;;3.70;;
16890;SDS011;8562;52.246;20.966;2022-09-21T06:07:07;4.57;;;4.07;;
16890;SDS011;8562;52.246;20.966;2022-09-21T06:09:33;4.00;;;3.60;;
16890;SDS011;8562;52.246;20.966;2022-09-21T06:11:59;4.93;;;4.03;;
16890;SDS011;8562;52.246;20.966;2022-09-21T06:14:25;4.77;;;4.00;;
16890;SDS011;8562;52.246;20.966;2022-09-21T06:16:52;4.77;;;3.77;;
16890;SDS011;8562;52.246;20.966;2022-09-21T06:19:18;5.83;;;3.97;;
16890;SDS011;8562;52.246;20.966;2022-09-21T06:21:44;6.43;;;3.33;;
16890;SDS011;8562;52.246;20.966;2022-09-21T06:24:10;3.57;;;3.27;;
16890;SDS011;8562;52.246;20.966;2022-09-21T06:26:36;5.77;;;3.83;;
16890;SDS011;8562;52.246;20.966;2022-09-21T06:29:03;5.97;;;3.67;;
16890;SDS011;8562;52.246;20.966;2022-09-21T06:31:29;4.17;;;2.57;;
16890;SDS011;8562;52.246;20.966;2022-09-21T06:33:55;6.57;;;3.30;;
16890;SDS011;8562;52.246;20.966;2022-09-21T06:36:21;3.80;;;2.87;;
16890;SDS011;8562;52.246;20.966;2022-09-21T06:38:47;3.43;;;2.83;;
16890;SDS011;8562;52.246;20.966;2022-09-21T06:41:13;4.27;;;3.03;;
16890;SDS011;8562;52.246;20.966;2022-09-21T06:43:40;3.50;;;2.87;;
16890;SDS011;8562;52.246;20.966;2022-09-21T06:46:06;3.27;;;2.90;;
16890;SDS011;8562;52.246;20.966;2022-09-21T06:48:32;4.10;;;3.07;;
16890;SDS011;8562;52.246;20.966;2022-09-21T06:50:59;3.07;;;2.63;;
16890;SDS011;8562;52.246;20.966;2022-09-21T06:53:26;5.03;;;3.03;;
16890;SDS011;8562;52.246;20.966;2022-09-21T06:55:58;3.37;;;2.50;;
16890;SDS011;8562;52.246;20.966;2022-09-21T06:58:25;4.37;;;2.60;;
16890;SDS011;8562;52.246;20.966;2022-09-21T07:00:51;3.97;;;2.73;;
16890;SDS011;8562;52.246;20.966;2022-09-21T07:03:18;3.00;;;2.73;;
16890;SDS011;8562;52.246;20.966;2022-09-21T07:05:44;2.90;;;2.33;;
16890;SDS011;8562;52.246;20.966;2022-09-21T07:08:10;4.37;;;2.30;;
16890;SDS011;8562;52.246;20.966;2022-09-21T07:10:37;4.73;;;2.13;;
16890;SDS011;8562;52.246;20.966;2022-09-21T07:13:03;2.40;;;2.20;;
16890;SDS011;8562;52.246;20.966;2022-09-21T07:15:30;2.27;;;2.07;;
16890;SDS011;8562;52.246;20.966;2022-09-21T07:17:57;3.20;;;2.07;;
16890;SDS011;8562;52.246;20.966;2022-09-21T07:20:23;1.93;;;1.50;;
16890;SDS011;8562;52.246;20.966;2022-09-21T07:22:50;2.10;;;1.90;;
16890;SDS011;8562;52.246;20.966;2022-09-21T07:25:16;2.13;;;1.93;;
16890;SDS011;8562;52.246;20.966;2022-09-21T07:27:42;2.60;;;1.40;;
16890;SDS011;8562;52.246;20.966;2022-09-21T07:30:08;1.67;;;1.57;;
16890;SDS011;8562;52.246;20.966;2022-09-21T07:32:34;3.63;;;2.00;;
16890;SDS011;8562;52.246;20.966;2022-09-21T07:35:01;2.03;;;1.83;;
16890;SDS011;8562;52.246;20.966;2022-09-21T07:37:27;2.00;;;1.60;;
16890;SDS011;8562;52.246;20.966;2022-09-21T07:39:53;1.20;;;1.10;;
16890;SDS011;8562;52.246;20.966;2022-09-21T07:42:19;2.10;;;1.60;;
16890;SDS011;8562;52.246;20.966;2022-09-21T07:44:47;1.57;;;1.47;;
16890;SDS011;8562;52.246;20.966;2022-09-21T07:47:13;1.30;;;1.20;;
16890;SDS011;8562;52.246;20.966;2022-09-21T07:49:40;1.77;;;1.37;;
16890;SDS011;8562;52.246;20.966;2022-09-21T07:52:07;1.47;;;1.37;;
16890;SDS011;8562;52.246;20.966;2022-09-21T07:54:34;1.80;;;1.47;;
16890;SDS011;8562;52.246;20.966;2022-09-21T07:57:01;3.43;;;1.77;;
16890;SDS011;8562;52.246;20.966;2022-09-21T07:59:45;1.67;;;1.50;;
16890;SDS011;8562;52.246;20.966;2022-09-21T08:02:11;1.70;;;1.60;;
16890;SDS011;8562;52.246;20.966;2022-09-21T08:04:37;1.20;;;1.00;;
16890;SDS011;8562;52.246;20.966;2022-09-21T08:07:04;1.40;;;1.23;;
16890;SDS011;8562;52.246;20.966;2022-09-21T08:09:30;2.53;;;1.70;;
16890;SDS011;8562;52.246;20.966;2022-09-21T08:11:56;1.63;;;1.30;;
16890;SDS011;8562;52.246;20.966;2022-09-21T08:14:22;3.60;;;1.20;;
16890;SDS011;8562;52.246;20.966;2022-09-21T08:16:48;1.40;;;1.20;;
16890;SDS011;8562;52.246;20.966;2022-09-21T08:19:14;1.80;;;1.50;;
16890;SDS011;8562;52.246;20.966;2022-09-21T08:21:41;1.50;;;1.10;;
16890;SDS011;8562;52.246;20.966;2022-09-21T08:24:08;1.47;;;1.30;;
16890;SDS011;8562;52.246;20.966;2022-09-21T08:26:34;1.67;;;1.40;;
16890;SDS011;8562;52.246;20.966;2022-09-21T08:29:00;2.33;;;1.53;;
16890;SDS011;8562;52.246;20.966;2022-09-21T08:31:26;1.03;;;0.90;;
16890;SDS011;8562;52.246;20.966;2022-09-21T08:33:53;1.33;;;1.13;;
16890;SDS011;8562;52.246;20.966;2022-09-21T08:36:21;1.10;;;1.00;;
16890;SDS011;8562;52.246;20.966;2022-09-21T08:38:48;1.33;;;0.97;;
16890;SDS011;8562;52.246;20.966;2022-09-21T08:43:45;1.00;;;0.90;;
16890;SDS011;8562;52.246;20.966;2022-09-21T08:46:17;0.63;;;0.63;;
16890;SDS011;8562;52.246;20.966;2022-09-21T08:49:04;1.00;;;0.90;;
16890;SDS011;8562;52.246;20.966;2022-09-21T08:51:32;0.97;;;0.83;;
16890;SDS011;8562;52.246;20.966;2022-09-21T08:57:02;1.37;;;1.20;;
16890;SDS011;8562;52.246;20.966;2022-09-21T08:59:28;1.43;;;1.30;;
16890;SDS011;8562;52.246;20.966;2022-09-21T09:04:25;1.10;;;0.90;;
16890;SDS011;8562;52.246;20.966;2022-09-21T09:15:17;0.80;;;0.80;;
16890;SDS011;8562;52.246;20.966;2022-09-21T09:17:51;1.83;;;1.00;;
16890;SDS011;8562;52.246;20.966;2022-09-21T09:20:32;1.50;;;1.37;;
16890;SDS011;8562;52.246;20.966;2022-09-21T09:25:31;1.20;;;1.00;;
16890;SDS011;8562;52.246;20.966;2022-09-21T09:28:00;1.27;;;1.10;;
16890;SDS011;8562;52.246;20.966;2022-09-21T09:30:30;1.60;;;1.20;;
16890;SDS011;8562;52.246;20.966;2022-09-21T09:33:20;1.53;;;1.00;;
16890;SDS011;8562;52.246;20.966;2022-09-21T09:35:46;1.57;;;1.23;;
16890;SDS011;8562;52.246;20.966;2022-09-21T09:43:42;1.00;;;1.00;;
16890;SDS011;8562;52.246;20.966;2022-09-21T09:51:22;1.40;;;0.90;;
16890;SDS011;8562;52.246;20.966;2022-09-21T09:53:50;1.10;;;0.97;;
16890;SDS011;8562;52.246;20.966;2022-09-21T09:56:18;2.27;;;1.00;;
16890;SDS011;8562;52.246;20.966;2022-09-21T09:58:48;3.50;;;1.03;;
16890;SDS011;8562;52.246;20.966;2022-09-21T10:04:09;1.33;;;0.90;;
16890;SDS011;8562;52.246;20.966;2022-09-21T10:06:36;1.73;;;1.00;;
16890;SDS011;8562;52.246;20.966;2022-09-21T10:11:43;1.50;;;0.90;;
16890;SDS011;8562;52.246;20.966;2022-09-21T10:14:12;0.80;;;0.80;;
16890;SDS011;8562;52.246;20.966;2022-09-21T10:16:41;0.77;;;0.70;;
16890;SDS011;8562;52.246;20.966;2022-09-21T10:19:16;1.33;;;1.10;;
16890;SDS011;8562;52.246;20.966;2022-09-21T10:21:43;0.93;;;0.80;;
16890;SDS011;8562;52.246;20.966;2022-09-21T10:26:48;1.30;;;0.90;;
16890;SDS011;8562;52.246;20.966;2022-09-21T10:34:20;0.60;;;0.50;;
16890;SDS011;8562;52.246;20.966;2022-09-21T10:36:51;0.93;;;0.80;;
16890;SDS011;8562;52.246;20.966;2022-09-21T10:44:17;1.13;;;0.87;;
16890;SDS011;8562;52.246;20.966;2022-09-21T10:46:44;0.70;;;0.67;;
16890;SDS011;8562;52.246;20.966;2022-09-21T10:49:12;1.37;;;1.23;;
16890;SDS011;8562;52.246;20.966;2022-09-21T10:51:40;0.93;;;0.80;;
16890;SDS011;8562;52.246;20.966;2022-09-21T10:54:09;2.10;;;0.90;;
16890;SDS011;8562;52.246;20.966;2022-09-21T10:56:35;0.97;;;0.97;;
16890;SDS011;8562;52.246;20.966;2022-09-21T10:59:27;0.70;;;0.70;;
16890;SDS011;8562;52.246;20.966;2022-09-21T11:01:54;1.20;;;0.80;;
16890;SDS011;8562;52.246;20.966;2022-09-21T11:07:04;0.60;;;0.60;;
16890;SDS011;8562;52.246;20.966;2022-09-21T11:09:38;1.43;;;0.70;;
16890;SDS011;8562;52.246;20.966;2022-09-21T11:24:41;0.80;;;0.70;;
16890;SDS011;8562;52.246;20.966;2022-09-21T11:37:37;0.77;;;0.77;;
16890;SDS011;8562;52.246;20.966;2022-09-21T11:45:07;1.00;;;0.70;;
16890;SDS011;8562;52.246;20.966;2022-09-21T11:50:19;1.20;;;0.60;;
16890;SDS011;8562;52.246;20.966;2022-09-21T11:58:14;0.80;;;0.70;;
16890;SDS011;8562;52.246;20.966;2022-09-21T12:03:27;0.50;;;0.50;;
16890;SDS011;8562;52.246;20.966;2022-09-21T12:06:09;1.13;;;0.63;;
16890;SDS011;8562;52.246;20.966;2022-09-21T12:09:25;1.43;;;0.50;;
16890;SDS011;8562;52.246;20.966;2022-09-21T12:21:47;0.67;;;0.53;;
16890;SDS011;8562;52.246;20.966;2022-09-21T12:24:20;0.50;;;0.40;;
16890;SDS011;8562;52.246;20.966;2022-09-21T12:26:50;0.47;;;0.40;;
16890;SDS011;8562;52.246;20.966;2022-09-21T12:29:21;0.53;;;0.53;;
16890;SDS011;8562;52.246;20.966;2022-09-21T12:34:32;0.67;;;0.40;;
16890;SDS011;8562;52.246;20.966;2022-09-21T12:37:20;0.53;;;0.53;;
16890;SDS011;8562;52.246;20.966;2022-09-21T12:39:57;0.90;;;0.60;;
16890;SDS011;8562;52.246;20.966;2022-09-21T12:44:54;0.70;;;0.50;;
16890;SDS011;8562;52.246;20.966;2022-09-21T12:48:04;0.40;;;0.40;;
16890;SDS011;8562;52.246;20.966;2022-09-21T12:50:57;1.40;;;0.40;;
16890;SDS011;8562;52.246;20.966;2022-09-21T12:52:58;0.30;;;0.30;;
16890;SDS011;8562;52.246;20.966;2022-09-21T12:55:41;0.50;;;0.50;;
16890;SDS011;8562;52.246;20.966;2022-09-21T13:03:37;0.40;;;0.40;;
16890;SDS011;8562;52.246;20.966;2022-09-21T13:08:37;1.90;;;0.30;;
16890;SDS011;8562;52.246;20.966;2022-09-21T13:11:05;2.10;;;0.57;;
16890;SDS011;8562;52.246;20.966;2022-09-21T13:16:01;0.47;;;0.30;;
16890;SDS011;8562;52.246;20.966;2022-09-21T13:20:56;0.80;;;0.80;;
16890;SDS011;8562;52.246;20.966;2022-09-21T13:23:24;1.10;;;0.30;;
16890;SDS011;8562;52.246;20.966;2022-09-21T13:25:58;0.47;;;0.47;;
16890;SDS011;8562;52.246;20.966;2022-09-21T13:28:38;0.30;;;0.30;;
16890;SDS011;8562;52.246;20.966;2022-09-21T13:34:04;0.40;;;0.40;;
16890;SDS011;8562;52.246;20.966;2022-09-21T13:36:33;3.07;;;0.50;;
16890;SDS011;8562;52.246;20.966;2022-09-21T13:41:29;0.50;;;0.47;;
16890;SDS011;8562;52.246;20.966;2022-09-21T13:44:00;2.93;;;0.50;;
16890;SDS011;8562;52.246;20.966;2022-09-21T13:51:31;1.73;;;0.63;;
16890;SDS011;8562;52.246;20.966;2022-09-21T13:53:57;0.50;;;0.50;;
16890;SDS011;8562;52.246;20.966;2022-09-21T13:56:25;0.60;;;0.40;;
16890;SDS011;8562;52.246;20.966;2022-09-21T13:58:53;0.93;;;0.73;;
16890;SDS011;8562;52.246;20.966;2022-09-21T14:01:29;0.80;;;0.70;;
16890;SDS011;8562;52.246;20.966;2022-09-21T14:04:01;0.87;;;0.80;;
16890;SDS011;8562;52.246;20.966;2022-09-21T14:06:32;0.60;;;0.60;;
16890;SDS011;8562;52.246;20.966;2022-09-21T14:19:04;4.10;;;1.17;;
16890;SDS011;8562;52.246;20.966;2022-09-21T14:24:36;1.40;;;1.03;;
16890;SDS011;8562;52.246;20.966;2022-09-21T14:27:04;1.73;;;1.10;;
16890;SDS011;8562;52.246;20.966;2022-09-21T14:29:55;1.50;;;1.10;;
16890;SDS011;8562;52.246;20.966;2022-09-21T14:32:25;2.10;;;0.97;;
16890;SDS011;8562;52.246;20.966;2022-09-21T14:34:54;1.80;;;1.07;;
16890;SDS011;8562;52.246;20.966;2022-09-21T14:37:28;2.30;;;1.13;;
16890;SDS011;8562;52.246;20.966;2022-09-21T14:39:55;1.20;;;0.80;;
16890;SDS011;8562;52.246;20.966;2022-09-21T14:42:24;2.97;;;1.10;;
16890;SDS011;8562;52.246;20.966;2022-09-21T14:44:54;1.00;;;0.90;;
16890;SDS011;8562;52.246;20.966;2022-09-21T14:50:27;1.37;;;0.53;;
16890;SDS011;8562;52.246;20.966;2022-09-21T14:55:31;0.43;;;0.43;;
16890;SDS011;8562;52.246;20.966;2022-09-21T15:00:43;0.50;;;0.50;;
16890;SDS011;8562;52.246;20.966;2022-09-21T15:05:42;0.47;;;0.47;;
16890;SDS011;8562;52.246;20.966;2022-09-21T15:08:16;0.83;;;0.60;;
16890;SDS011;8562;52.246;20.966;2022-09-21T15:11:10;1.43;;;0.50;;
16890;SDS011;8562;52.246;20.966;2022-09-21T15:13:45;0.43;;;0.40;;
16890;SDS011;8562;52.246;20.966;2022-09-21T15:18:43;0.60;;;0.60;;
16890;SDS011;8562;52.246;20.966;2022-09-21T15:21:21;0.30;;;0.30;;
16890;SDS011;8562;52.246;20.966;2022-09-21T15:23:48;0.70;;;0.57;;
16890;SDS011;8562;52.246;20.966;2022-09-21T15:26:22;1.40;;;0.73;;
16890;SDS011;8562;52.246;20.966;2022-09-21T15:28:57;1.43;;;0.80;;
16890;SDS011;8562;52.246;20.966;2022-09-21T15:31:24;0.60;;;0.40;;
16890;SDS011;8562;52.246;20.966;2022-09-21T15:33:50;0.70;;;0.60;;
16890;SDS011;8562;52.246;20.966;2022-09-21T15:36:20;0.97;;;0.70;;
16890;SDS011;8562;52.246;20.966;2022-09-21T15:38:49;0.87;;;0.50;;
16890;SDS011;8562;52.246;20.966;2022-09-21T15:44:05;0.77;;;0.73;;
16890;SDS011;8562;52.246;20.966;2022-09-21T15:46:32;1.10;;;0.60;;
16890;SDS011;8562;52.246;20.966;2022-09-21T15:48:59;0.40;;;0.30;;
16890;SDS011;8562;52.246;20.966;2022-09-21T15:51:31;2.73;;;0.70;;
16890;SDS011;8562;52.246;20.966;2022-09-21T15:54:07;1.70;;;0.70;;
16890;SDS011;8562;52.246;20.966;2022-09-21T15:56:34;0.60;;;0.53;;
16890;SDS011;8562;52.246;20.966;2022-09-21T15:59:05;0.63;;;0.50;;
16890;SDS011;8562;52.246;20.966;2022-09-21T16:01:44;0.77;;;0.77;;
16890;SDS011;8562;52.246;20.966;2022-09-21T16:04:21;0.80;;;0.80;;
16890;SDS011;8562;52.246;20.966;2022-09-21T16:06:59;0.60;;;0.60;;
16890;SDS011;8562;52.246;20.966;2022-09-21T16:09:27;0.67;;;0.67;;
16890;SDS011;8562;52.246;20.966;2022-09-21T16:11:54;0.90;;;0.80;;
16890;SDS011;8562;52.246;20.966;2022-09-21T16:14:21;0.73;;;0.73;;
16890;SDS011;8562;52.246;20.966;2022-09-21T16:22:14;0.70;;;0.70;;
16890;SDS011;8562;52.246;20.966;2022-09-21T16:24:45;0.90;;;0.77;;
16890;SDS011;8562;52.246;20.966;2022-09-21T16:27:18;2.00;;;1.00;;
16890;SDS011;8562;52.246;20.966;2022-09-21T16:29:45;1.50;;;0.93;;
16890;SDS011;8562;52.246;20.966;2022-09-21T16:34:50;0.80;;;0.80;;
16890;SDS011;8562;52.246;20.966;2022-09-21T16:39:49;1.10;;;1.00;;
16890;SDS011;8562;52.246;20.966;2022-09-21T16:42:15;2.87;;;0.90;;
16890;SDS011;8562;52.246;20.966;2022-09-21T16:44:43;1.33;;;0.90;;
16890;SDS011;8562;52.246;20.966;2022-09-21T16:47:19;1.00;;;0.60;;
16890;SDS011;8562;52.246;20.966;2022-09-21T16:49:52;0.53;;;0.50;;
16890;SDS011;8562;52.246;20.966;2022-09-21T16:52:24;0.73;;;0.63;;
16890;SDS011;8562;52.246;20.966;2022-09-21T16:54:52;0.93;;;0.60;;
16890;SDS011;8562;52.246;20.966;2022-09-21T16:57:20;0.83;;;0.73;;
16890;SDS011;8562;52.246;20.966;2022-09-21T16:59:47;1.30;;;1.00;;
16890;SDS011;8562;52.246;20.966;2022-09-21T17:02:14;0.87;;;0.73;;
16890;SDS011;8562;52.246;20.966;2022-09-21T17:04:41;1.17;;;0.87;;
16890;SDS011;8562;52.246;20.966;2022-09-21T17:07:11;0.70;;;0.70;;
16890;SDS011;8562;52.246;20.966;2022-09-21T17:09:38;3.00;;;0.80;;
16890;SDS011;8562;52.246;20.966;2022-09-21T17:12:07;0.73;;;0.70;;
16890;SDS011;8562;52.246;20.966;2022-09-21T17:14:35;1.10;;;0.90;;
16890;SDS011;8562;52.246;20.966;2022-09-21T17:19:30;0.80;;;0.80;;
16890;SDS011;8562;52.246;20.966;2022-09-21T17:21:56;1.10;;;0.70;;
16890;SDS011;8562;52.246;20.966;2022-09-21T17:24:23;1.27;;;0.90;;
16890;SDS011;8562;52.246;20.966;2022-09-21T17:26:52;1.23;;;0.80;;
16890;SDS011;8562;52.246;20.966;2022-09-21T17:29:20;0.73;;;0.73;;
16890;SDS011;8562;52.246;20.966;2022-09-21T17:31:47;2.10;;;1.17;;
16890;SDS011;8562;52.246;20.966;2022-09-21T17:34:27;0.70;;;0.60;;
16890;SDS011;8562;52.246;20.966;2022-09-21T17:36:56;0.90;;;0.83;;
16890;SDS011;8562;52.246;20.966;2022-09-21T17:39:22;2.27;;;0.80;;
16890;SDS011;8562;52.246;20.966;2022-09-21T17:42:21;2.03;;;1.13;;
16890;SDS011;8562;52.246;20.966;2022-09-21T17:47:28;1.30;;;1.10;;
16890;SDS011;8562;52.246;20.966;2022-09-21T17:52:35;2.10;;;1.13;;
16890;SDS011;8562;52.246;20.966;2022-09-21T17:55:20;1.60;;;1.23;;
16890;SDS011;8562;52.246;20.966;2022-09-21T18:00:17;1.93;;;1.20;;
16890;SDS011;8562;52.246;20.966;2022-09-21T18:02:44;1.77;;;1.13;;
16890;SDS011;8562;52.246;20.966;2022-09-21T18:05:16;1.40;;;1.20;;
16890;SDS011;8562;52.246;20.966;2022-09-21T18:07:44;1.43;;;1.00;;
16890;SDS011;8562;52.246;20.966;2022-09-21T18:10:13;1.80;;;1.43;;
16890;SDS011;8562;52.246;20.966;2022-09-21T18:15:26;1.60;;;1.43;;
16890;SDS011;8562;52.246;20.966;2022-09-21T18:18:28;2.07;;;1.20;;
16890;SDS011;8562;52.246;20.966;2022-09-21T18:25:42;2.30;;;1.30;;
16890;SDS011;8562;52.246;20.966;2022-09-21T18:28:57;1.70;;;1.60;;
16890;SDS011;8562;52.246;20.966;2022-09-21T18:31:01;3.30;;;1.60;;
16890;SDS011;8562;52.246;20.966;2022-09-21T18:33:38;1.50;;;1.40;;
16890;SDS011;8562;52.246;20.966;2022-09-21T18:36:18;1.37;;;1.03;;
16890;SDS011;8562;52.246;20.966;2022-09-21T18:43:52;2.27;;;1.90;;